To NAV CANADA Home Page Login to a new session Search on AWWS site Feedback and Comments Disclaimer Vers la page française équivalente Tips FAQ What's new on the site To the Forecasts and Observations / NOTAM section To "File a Flight Plan" website Publications and other links Update of the User's profile FIC Telephone Numbers My Weather Data Folder Route Weather Data Regional Weather Data Local Weather Data To the Forecasts and Observations / NOTAM section
Request Generated 03/28/2015 at 12:14:05 UTC . Weather information available at that time is displayed.

METAR/TAF

SALLUIT/QC    

METAR CYZG 281200Z 00000KT 10SM -SN BKN020 M21/M22 A2924 RMK SC5 VSB LWR ENE SNW CVR ONE LOOSE SLP924=

CYZG - No TAF is issued for this station

Your time UTC time
Weather data provided by Environment Canada and NAV CANADA